createdAt,value
2024-01-11T00:02:01.889Z,51.10
2024-01-11T00:04:51.470Z,51.10
2024-01-11T00:07:40.888Z,51.20
2024-01-11T00:10:30.212Z,51.20
2024-01-11T00:13:19.581Z,51.10
2024-01-11T00:16:10.264Z,51.20
2024-01-11T00:19:00.080Z,51.20
2024-01-11T00:21:49.522Z,51.30
2024-01-11T00:24:39.779Z,51.30
2024-01-11T00:27:29.403Z,51.40
2024-01-11T00:30:18.941Z,51.70
2024-01-11T00:33:10.583Z,51.60
2024-01-11T00:36:00.449Z,51.70
2024-01-11T00:38:49.989Z,51.60
2024-01-11T00:41:39.613Z,51.60
2024-01-11T00:44:29.194Z,51.60
2024-01-11T00:47:18.685Z,51.40
2024-01-11T00:50:10.818Z,51.40
2024-01-11T00:53:00.336Z,51.50
2024-01-11T00:55:49.701Z,51.60
2024-01-11T00:58:38.992Z,51.60
2024-01-11T01:01:28.413Z,51.60
2024-01-11T01:04:18.048Z,51.80
2024-01-11T01:07:08.948Z,51.80
2024-01-11T01:09:58.295Z,51.70
2024-01-11T01:12:47.670Z,51.60
2024-01-11T01:15:37.008Z,51.50
2024-01-11T01:18:26.504Z,51.50
2024-01-11T01:21:15.857Z,51.50
2024-01-11T01:24:06.940Z,51.60
2024-01-11T01:26:56.239Z,51.60
2024-01-11T01:29:45.790Z,51.80
2024-01-11T01:32:36.027Z,51.80
2024-01-11T01:35:25.688Z,51.80
2024-01-11T01:38:15.246Z,52.00
2024-01-11T01:41:06.500Z,52.00
2024-01-11T01:43:55.930Z,52.10
2024-01-11T01:46:45.427Z,52.10
2024-01-11T01:49:35.065Z,52.10
2024-01-11T01:52:25.090Z,52.20
2024-01-11T01:55:17.132Z,52.10
2024-01-11T01:58:07.913Z,52.00
2024-01-11T02:00:58.505Z,51.90
2024-01-11T02:03:49.148Z,52.00
2024-01-11T02:06:39.842Z,52.00
2024-01-11T02:09:30.171Z,52.00
2024-01-11T02:12:19.821Z,52.00
2024-01-11T02:15:11.558Z,51.80
2024-01-11T02:18:00.932Z,51.90
2024-01-11T02:20:50.376Z,52.00
2024-01-11T02:23:46.725Z,52.00
2024-01-11T02:26:37.836Z,52.10
2024-01-11T02:29:27.211Z,52.20
2024-01-11T02:32:17.154Z,52.10
2024-01-11T02:35:07.297Z,52.10
2024-01-11T02:37:57.194Z,52.20
2024-01-11T02:40:47.258Z,52.20
2024-01-11T02:43:38.107Z,52.20
2024-01-11T02:46:27.523Z,52.10
2024-01-11T02:49:17.300Z,52.10
2024-01-11T02:52:07.633Z,52.10
2024-01-11T02:54:56.970Z,52.10
2024-01-11T02:57:46.723Z,52.10
2024-01-11T03:00:37.449Z,52.10
2024-01-11T03:03:26.815Z,52.20
2024-01-11T03:06:18.630Z,52.20
2024-01-11T03:09:07.968Z,52.30
2024-01-11T03:11:57.339Z,52.20
2024-01-11T03:14:46.804Z,52.20
2024-01-11T03:17:37.936Z,52.20
2024-01-11T03:20:27.639Z,52.20
2024-01-11T03:23:17.158Z,52.30
2024-01-11T03:26:06.521Z,52.40
2024-01-11T03:28:55.832Z,52.40
2024-01-11T03:31:46.424Z,52.40
2024-01-11T03:34:37.336Z,52.20
2024-01-11T03:37:26.745Z,52.10
2024-01-11T03:40:16.506Z,52.00
2024-01-11T03:43:06.115Z,52.70
2024-01-11T03:45:55.575Z,52.40
2024-01-11T03:48:44.975Z,52.40
2024-01-11T03:51:35.702Z,52.50
2024-01-11T03:54:25.130Z,52.60
2024-01-11T03:57:14.572Z,52.70
2024-01-11T04:02:55.083Z,52.90
2024-01-11T04:05:44.596Z,53.20
2024-01-11T04:08:35.398Z,53.20
2024-01-11T04:11:24.895Z,53.30
2024-01-11T04:14:14.707Z,53.50
2024-01-11T04:17:04.577Z,53.50
2024-01-11T04:19:53.936Z,53.50
2024-01-11T04:22:43.289Z,53.70
2024-01-11T04:25:33.912Z,53.80
2024-01-11T04:28:23.295Z,53.80
2024-01-11T04:31:12.619Z,54.00
2024-01-11T04:34:01.991Z,54.20
2024-01-11T04:36:51.453Z,54.30
2024-01-11T04:39:40.777Z,54.30
2024-01-11T04:42:31.476Z,54.40
2024-01-11T04:45:20.800Z,54.50
2024-01-11T04:48:10.300Z,54.60
2024-01-11T04:50:59.669Z,55.40
2024-01-11T04:53:49.277Z,55.00
2024-01-11T04:56:39.107Z,55.10
2024-01-11T04:59:29.915Z,55.10
2024-01-11T05:02:19.371Z,55.10
2024-01-11T05:05:09.106Z,55.30
2024-01-11T05:07:59.553Z,55.30
2024-01-11T05:10:49.008Z,55.30
2024-01-11T05:13:38.336Z,55.20
2024-01-11T05:16:30.273Z,55.10
2024-01-11T05:19:19.713Z,55.10
2024-01-11T05:22:09.198Z,55.00
2024-01-11T05:24:58.539Z,54.90
2024-01-11T05:27:47.959Z,54.90
2024-01-11T05:30:37.522Z,55.00
2024-01-11T05:33:28.486Z,54.90
2024-01-11T05:36:17.928Z,55.00
2024-01-11T05:39:07.301Z,55.00
2024-01-11T05:41:56.617Z,55.00
2024-01-11T05:44:46.035Z,55.10
2024-01-11T05:47:35.546Z,55.00
2024-01-11T05:50:26.406Z,55.00
2024-01-11T05:53:16.040Z,55.10
2024-01-11T05:56:10.955Z,55.10
2024-01-11T05:59:00.885Z,55.10
2024-01-11T06:01:50.248Z,55.20
2024-01-11T06:04:39.664Z,55.20
2024-01-11T06:07:30.380Z,55.20
2024-01-11T06:10:19.960Z,55.40
2024-01-11T06:13:10.684Z,55.60
2024-01-11T06:16:00.118Z,55.50
2024-01-11T06:18:49.649Z,55.50
2024-01-11T06:21:39.058Z,55.50
2024-01-11T06:24:29.837Z,55.50
2024-01-11T06:27:19.153Z,55.40
2024-01-11T06:30:10.556Z,55.50
2024-01-11T06:32:59.955Z,56.20
2024-01-11T06:35:49.335Z,55.60
2024-01-11T06:38:38.744Z,55.70
2024-01-11T06:41:29.615Z,55.70
2024-01-11T06:44:19.060Z,55.80
2024-01-11T06:47:08.449Z,55.80
2024-01-11T06:49:57.799Z,55.80
2024-01-11T06:52:47.281Z,55.90
2024-01-11T06:55:37.506Z,56.00
2024-01-11T06:58:28.246Z,56.10
2024-01-11T07:01:17.637Z,56.20
2024-01-11T07:04:07.199Z,56.30
2024-01-11T07:06:56.635Z,56.60
2024-01-11T07:09:46.228Z,56.70
2024-01-11T07:12:35.570Z,56.90
2024-01-11T07:15:26.415Z,57.00
2024-01-11T07:18:16.164Z,57.30
2024-01-11T07:21:06.218Z,57.40
2024-01-11T07:23:55.952Z,57.40
2024-01-11T07:26:45.429Z,57.50
2024-01-11T07:29:35.380Z,58.40
2024-01-11T07:32:26.295Z,58.10
2024-01-11T07:35:19.188Z,58.40
2024-01-11T07:38:08.886Z,58.80
2024-01-11T07:40:58.324Z,59.20
2024-01-11T07:43:53.703Z,59.70
2024-01-11T07:46:52.488Z,60.90
2024-01-11T07:49:45.346Z,63.20
2024-01-11T07:52:34.738Z,66.30
2024-01-11T07:55:25.241Z,67.80
2024-01-11T07:58:14.683Z,68.20
2024-01-11T08:01:04.884Z,67.70
2024-01-11T08:03:54.414Z,67.00
2024-01-11T08:06:45.487Z,65.90
2024-01-11T08:09:34.880Z,64.70
2024-01-11T08:12:24.369Z,63.70
2024-01-11T08:15:14.418Z,62.80
2024-01-11T08:18:03.848Z,62.10
2024-01-11T08:20:53.481Z,61.60
2024-01-11T08:23:47.129Z,61.30
2024-01-11T08:26:37.042Z,61.20
2024-01-11T08:29:26.550Z,61.20
2024-01-11T08:32:24.411Z,62.20
2024-01-11T08:35:21.055Z,64.70
2024-01-11T08:38:10.760Z,66.60
2024-01-11T08:41:01.783Z,69.40
2024-01-11T08:43:51.277Z,74.20
2024-01-11T08:46:40.567Z,79.70
2024-01-11T08:49:29.962Z,83.50
2024-01-11T08:52:19.319Z,88.80
2024-01-11T08:55:09.654Z,91.90
2024-01-11T08:58:00.431Z,93.90
2024-01-11T09:00:49.938Z,95.10
2024-01-11T09:03:39.563Z,96.60
2024-01-11T09:06:29.021Z,97.60
2024-01-11T09:09:18.398Z,97.90
2024-01-11T09:12:08.435Z,97.80
2024-01-11T09:14:59.184Z,96.80
2024-01-11T09:17:48.713Z,94.20
2024-01-11T09:20:38.690Z,92.20
2024-01-11T09:23:28.121Z,86.40
2024-01-11T09:26:17.502Z,80.50
2024-01-11T09:29:06.845Z,75.50
2024-01-11T09:31:57.660Z,73.00
2024-01-11T09:34:47.130Z,71.40
2024-01-11T09:37:36.582Z,71.40
2024-01-11T09:40:26.212Z,71.50
2024-01-11T09:43:15.930Z,71.40
2024-01-11T09:46:08.138Z,72.90
2024-01-11T09:49:00.720Z,72.60
2024-01-11T09:51:51.064Z,70.00
2024-01-11T09:54:41.412Z,68.00
2024-01-11T09:57:34.790Z,66.70
2024-01-11T10:00:25.786Z,65.90
2024-01-11T10:03:15.579Z,67.50
2024-01-11T10:06:08.269Z,68.90
2024-01-11T10:08:57.617Z,69.10
2024-01-11T10:11:47.077Z,69.70
2024-01-11T10:14:36.515Z,70.50
2024-01-11T10:17:26.309Z,70.40
2024-01-11T10:20:16.603Z,69.80
2024-01-11T10:23:08.446Z,69.90
2024-01-11T10:25:59.451Z,66.90
2024-01-11T10:28:49.500Z,66.10
2024-01-11T10:31:38.955Z,67.60
2024-01-11T10:34:28.512Z,69.20
2024-01-11T10:37:19.693Z,67.80
2024-01-11T10:40:13.675Z,65.20
2024-01-11T10:43:10.283Z,62.60
2024-01-11T10:46:05.258Z,61.00
2024-01-11T10:48:58.958Z,60.00
2024-01-11T10:51:55.759Z,59.20
2024-01-11T10:54:45.374Z,58.90
2024-01-11T10:57:36.446Z,58.80
2024-01-11T11:00:26.445Z,57.80
2024-01-11T11:03:17.140Z,57.60
2024-01-11T11:06:08.918Z,57.50
2024-01-11T11:09:00.349Z,57.80
2024-01-11T11:11:49.972Z,56.80
2024-01-11T11:14:41.426Z,57.30
2024-01-11T11:17:31.826Z,56.90
2024-01-11T11:20:21.614Z,56.60
2024-01-11T11:23:13.511Z,56.70
2024-01-11T11:26:02.948Z,57.40
2024-01-11T11:28:53.617Z,58.30
2024-01-11T11:31:48.774Z,58.70
2024-01-11T11:34:45.657Z,59.20
2024-01-11T11:37:35.308Z,58.00
2024-01-11T11:40:34.685Z,57.70
2024-01-11T11:43:24.391Z,57.70
2024-01-11T11:46:13.801Z,58.70
2024-01-11T11:49:04.545Z,60.20
2024-01-11T11:51:58.266Z,60.90
2024-01-11T11:54:47.714Z,61.30
2024-01-11T11:57:38.096Z,60.60
2024-01-11T12:00:31.262Z,59.60
2024-01-11T12:03:20.633Z,58.80
2024-01-11T12:06:12.640Z,58.20
2024-01-11T12:09:02.084Z,57.50
2024-01-11T12:11:58.258Z,57.20
2024-01-11T12:14:56.531Z,57.00
2024-01-11T12:17:47.174Z,57.10
2024-01-11T12:20:36.817Z,56.70
2024-01-11T12:23:28.060Z,56.80
2024-01-11T12:26:23.192Z,56.80
2024-01-11T12:29:13.155Z,56.90
2024-01-11T12:32:03.833Z,56.80
2024-01-11T12:34:53.485Z,56.70
2024-01-11T12:37:42.812Z,56.70
2024-01-11T12:40:35.770Z,56.30
2024-01-11T12:43:25.613Z,56.30
2024-01-11T12:46:15.005Z,56.60
2024-01-11T12:49:04.442Z,56.50
2024-01-11T12:51:54.234Z,56.50
2024-01-11T12:54:43.731Z,56.30
2024-01-11T12:57:34.850Z,56.10
2024-01-11T13:00:25.734Z,55.80
2024-01-11T13:03:15.430Z,55.60
2024-01-11T13:06:06.050Z,55.30
2024-01-11T13:08:55.645Z,55.00
2024-01-11T13:11:45.473Z,54.70
2024-01-11T13:14:36.307Z,54.50
2024-01-11T13:17:25.901Z,54.30
2024-01-11T13:20:15.488Z,54.20
2024-01-11T13:23:16.251Z,54.10
2024-01-11T13:26:06.552Z,53.40
2024-01-11T13:28:56.018Z,53.70
2024-01-11T13:31:46.862Z,53.50
2024-01-11T13:34:36.230Z,53.20
2024-01-11T13:37:25.575Z,53.10
2024-01-11T13:40:15.466Z,52.90
2024-01-11T13:43:05.344Z,52.70
2024-01-11T13:45:55.575Z,52.50
2024-01-11T13:48:46.369Z,52.30
2024-01-11T13:51:46.005Z,52.30
2024-01-11T13:54:42.888Z,52.10
2024-01-11T13:57:32.283Z,52.00
2024-01-11T14:00:22.539Z,51.90
2024-01-11T14:03:12.298Z,52.00
2024-01-11T14:06:04.030Z,52.00
2024-01-11T14:08:53.754Z,52.30
2024-01-11T14:11:43.069Z,52.60
2024-01-11T14:14:32.607Z,53.00
2024-01-11T14:17:22.083Z,53.10
2024-01-11T14:20:15.724Z,53.00
2024-01-11T14:23:06.949Z,52.80
2024-01-11T14:25:57.841Z,52.50
2024-01-11T14:28:47.200Z,52.40
2024-01-11T14:31:36.919Z,52.10
2024-01-11T14:34:28.373Z,51.80
2024-01-11T14:37:18.249Z,51.60
2024-01-11T14:40:12.210Z,51.50
2024-01-11T14:43:01.588Z,51.30
2024-01-11T14:45:52.210Z,51.20
2024-01-11T14:48:43.039Z,51.10
2024-01-11T14:51:35.011Z,51.00
2024-01-11T14:54:24.447Z,50.90
2024-01-11T14:57:15.686Z,50.60
2024-01-11T15:00:09.092Z,50.70
2024-01-11T15:02:58.729Z,50.80
2024-01-11T15:05:48.219Z,50.80
2024-01-11T15:08:37.783Z,50.60
2024-01-11T15:11:28.720Z,50.50
2024-01-11T15:14:20.350Z,50.60
2024-01-11T15:17:09.798Z,50.60
2024-01-11T15:19:59.211Z,50.60
2024-01-11T15:22:48.545Z,50.60
2024-01-11T15:25:37.871Z,50.50
2024-01-11T15:28:27.311Z,50.50
2024-01-11T15:31:18.252Z,50.50
2024-01-11T15:34:08.751Z,50.50
2024-01-11T15:36:58.307Z,50.50
2024-01-11T15:39:48.274Z,50.50
2024-01-11T15:42:38.522Z,50.60
2024-01-11T15:45:27.925Z,50.60
2024-01-11T15:48:18.822Z,50.80
2024-01-11T15:51:08.310Z,50.80
2024-01-11T15:53:57.684Z,50.90
2024-01-11T15:56:47.224Z,51.10
2024-01-11T15:59:36.692Z,51.20
2024-01-11T16:02:26.162Z,51.20
2024-01-11T16:05:17.210Z,51.20
2024-01-11T16:08:07.880Z,51.30
2024-01-11T16:10:57.330Z,51.30
2024-01-11T16:13:49.573Z,51.20
2024-01-11T16:16:38.949Z,51.20
2024-01-11T16:19:28.419Z,51.20
2024-01-11T16:22:21.303Z,51.20
2024-01-11T16:25:11.737Z,51.30
2024-01-11T16:28:01.503Z,51.20
2024-01-11T16:30:50.942Z,51.30
2024-01-11T16:33:40.356Z,51.30
2024-01-11T16:36:30.020Z,51.40
2024-01-11T16:39:20.873Z,51.40
2024-01-11T16:42:11.269Z,51.40
2024-01-11T16:45:00.717Z,51.40
2024-01-11T16:47:51.861Z,51.50
2024-01-11T16:50:41.364Z,51.50
2024-01-11T16:53:31.380Z,51.60
2024-01-11T16:56:22.290Z,51.50
2024-01-11T16:59:12.140Z,51.60
2024-01-11T17:02:01.500Z,51.60
2024-01-11T17:04:51.144Z,51.70
2024-01-11T17:07:40.536Z,51.80
2024-01-11T17:10:30.139Z,51.80
2024-01-11T17:13:21.090Z,51.90
2024-01-11T17:16:11.137Z,52.00
2024-01-11T17:19:00.520Z,52.20
2024-01-11T17:21:50.340Z,52.50
2024-01-11T17:24:39.728Z,52.60
2024-01-11T17:27:29.207Z,52.90
2024-01-11T17:30:20.135Z,53.20
2024-01-11T17:33:10.534Z,53.40
2024-01-11T17:36:00.277Z,53.60
2024-01-11T17:38:49.958Z,53.80
2024-01-11T17:41:42.341Z,53.80
2024-01-11T17:44:31.786Z,54.00
2024-01-11T17:47:22.545Z,54.00
2024-01-11T17:50:12.112Z,54.20
2024-01-11T17:53:01.618Z,54.30
2024-01-11T17:55:52.022Z,54.20
2024-01-11T17:58:41.487Z,54.40
2024-01-11T18:01:30.891Z,54.40
2024-01-11T18:04:21.841Z,54.50
2024-01-11T18:07:12.130Z,54.60
2024-01-11T18:10:01.621Z,54.50
2024-01-11T18:12:51.101Z,54.70
2024-01-11T18:15:40.529Z,54.70
2024-01-11T18:18:31.277Z,54.80
2024-01-11T18:21:22.226Z,54.80
2024-01-11T18:24:11.758Z,54.90
2024-01-11T18:27:01.309Z,54.90
2024-01-11T18:29:50.850Z,55.00
2024-01-11T18:32:40.777Z,55.00
2024-01-11T18:35:30.350Z,55.20
2024-01-11T18:38:22.523Z,55.30
2024-01-11T18:41:12.007Z,55.30
2024-01-11T18:44:01.431Z,55.30
2024-01-11T18:46:50.802Z,55.40
2024-01-11T18:49:40.405Z,55.50
2024-01-11T18:52:31.735Z,55.70
2024-01-11T18:55:22.525Z,55.80
2024-01-11T18:58:11.985Z,56.00
2024-01-11T19:01:01.390Z,56.00
2024-01-11T19:03:50.801Z,56.10
2024-01-11T19:06:40.276Z,56.20
2024-01-11T19:09:29.721Z,56.30
2024-01-11T19:12:20.457Z,56.40
2024-01-11T19:15:10.927Z,56.60
2024-01-11T19:18:00.484Z,56.70
2024-01-11T19:20:54.026Z,56.80
2024-01-11T19:23:43.821Z,56.80
2024-01-11T19:26:33.220Z,56.90
2024-01-11T19:29:24.890Z,57.00
2024-01-11T19:32:14.273Z,57.10
2024-01-11T19:35:04.101Z,57.10
2024-01-11T19:37:54.443Z,57.20
2024-01-11T19:40:44.016Z,57.40
2024-01-11T19:43:34.477Z,57.50
2024-01-11T19:46:25.265Z,57.60
2024-01-11T19:49:14.800Z,57.80
2024-01-11T19:52:04.513Z,57.80
2024-01-11T19:54:53.923Z,57.90
2024-01-11T19:57:43.306Z,58.00
2024-01-11T20:00:33.437Z,58.20
2024-01-11T20:03:24.408Z,58.20
2024-01-11T20:06:14.774Z,58.30
2024-01-11T20:09:04.383Z,58.40
2024-01-11T20:11:53.847Z,58.50
2024-01-11T20:14:43.342Z,58.70
2024-01-11T20:17:32.778Z,58.70
2024-01-11T20:20:23.586Z,58.80
2024-01-11T20:23:13.882Z,59.00
2024-01-11T20:26:03.684Z,58.90
2024-01-11T20:28:53.131Z,58.90
2024-01-11T20:31:42.572Z,59.00
2024-01-11T20:34:32.010Z,59.00
2024-01-11T20:37:23.028Z,59.10
2024-01-11T20:40:12.945Z,59.30
2024-01-11T20:43:02.300Z,59.20
2024-01-11T20:45:52.902Z,59.40
2024-01-11T20:48:42.444Z,59.50
2024-01-11T20:51:31.877Z,59.50
2024-01-11T20:54:23.532Z,59.60
2024-01-11T20:57:12.910Z,59.70
2024-01-11T21:00:04.194Z,59.70
2024-01-11T21:02:56.891Z,59.70
2024-01-11T21:05:49.397Z,59.90
2024-01-11T21:08:38.945Z,60.00
2024-01-11T21:11:30.071Z,60.10
2024-01-11T21:14:19.478Z,60.20
2024-01-11T21:17:08.887Z,60.20
2024-01-11T21:19:58.323Z,60.30
2024-01-11T21:22:47.736Z,60.40
2024-01-11T21:25:37.106Z,60.60
2024-01-11T21:28:27.981Z,60.80
2024-01-11T21:31:17.424Z,60.90
2024-01-11T21:34:06.932Z,61.10
2024-01-11T21:36:56.284Z,61.10
2024-01-11T21:39:45.684Z,61.30
2024-01-11T21:42:35.094Z,61.50
2024-01-11T21:45:26.068Z,61.70
2024-01-11T21:48:15.582Z,61.90
2024-01-11T21:51:05.366Z,62.00
2024-01-11T21:53:58.561Z,61.90
2024-01-11T21:56:48.591Z,62.10
2024-01-11T21:59:38.124Z,62.10
2024-01-11T22:02:28.894Z,62.20
2024-01-11T22:05:18.515Z,62.40
2024-01-11T22:08:07.900Z,62.50
2024-01-11T22:10:57.284Z,62.50
2024-01-11T22:13:46.572Z,62.80
2024-01-11T22:16:35.973Z,62.90
2024-01-11T22:19:27.362Z,63.20
2024-01-11T22:22:17.081Z,63.50
2024-01-11T22:25:07.599Z,63.60
2024-01-11T22:27:57.033Z,63.70
2024-01-11T22:30:46.684Z,63.90
2024-01-11T22:33:36.297Z,64.00
2024-01-11T22:36:27.573Z,64.20
2024-01-11T22:39:16.906Z,64.60
2024-01-11T22:42:06.708Z,64.70
2024-01-11T22:44:56.210Z,64.90
2024-01-11T22:47:45.638Z,65.00
2024-01-11T22:50:35.129Z,65.30
2024-01-11T22:53:25.921Z,65.40
2024-01-11T22:56:15.369Z,65.60
2024-01-11T22:59:06.024Z,65.60
2024-01-11T23:01:55.898Z,65.70
2024-01-11T23:04:45.412Z,66.00
2024-01-11T23:07:34.737Z,66.10
2024-01-11T23:10:25.474Z,66.10
2024-01-11T23:13:15.024Z,66.20
2024-01-11T23:16:04.789Z,66.30
2024-01-11T23:18:54.245Z,66.40
2024-01-11T23:21:43.678Z,66.50
2024-01-11T23:24:33.021Z,66.70
2024-01-11T23:27:23.812Z,66.70
2024-01-11T23:30:13.694Z,67.00
2024-01-11T23:33:03.625Z,66.90
2024-01-11T23:35:54.037Z,67.00
2024-01-11T23:38:43.427Z,67.80
2024-01-11T23:41:32.766Z,67.80
2024-01-11T23:44:23.599Z,67.80
2024-01-11T23:47:13.135Z,68.10
2024-01-11T23:50:02.692Z,67.90
2024-01-11T23:52:52.167Z,68.80
2024-01-11T23:55:41.439Z,68.20
2024-01-11T23:58:30.846Z,68.20
